Time;durP1;ratioP1;P1;durP2;ratioP2;P2;SDS_P1;SDS_P2;PMS_P1;PMS_P2;Temp;Humidity;BMP_temperature;BMP_pressure;BME280_temperature;BME280_humidity;BME280_pressure;Samples;Min_cycle;Max_cycle;Signal;HPM_P1;HPM_P2
2023/05/29 00:02:22;;;;;;;67.50;52.10;;;18.00;76.00;;;;;;4895421;28;89723;-63
2023/05/29 00:04:48;;;;;;;69.18;52.45;;;18.00;75.90;;;;;;4904232;28;90718;-68
2023/05/29 00:07:14;;;;;;;68.55;52.17;;;17.90;75.90;;;;;;4900245;28;90736;-59
2023/05/29 00:09:39;;;;;;;68.80;52.13;;;17.90;75.40;;;;;;4907761;28;89248;-60
2023/05/29 00:12:06;;;;;;;68.63;52.28;;;17.80;75.70;;;;;;4902095;28;89904;-59
2023/05/29 00:14:31;;;;;;;65.88;51.70;;;17.80;76.30;;;;;;4904237;28;90360;-53
2023/05/29 00:16:57;;;;;;;67.32;52.38;;;17.80;76.30;;;;;;4904532;28;91897;-67
2023/05/29 00:19:24;;;;;;;69.72;52.28;;;17.80;76.30;;;;;;4899967;28;91378;-64
2023/05/29 00:21:50;;;;;;;68.68;52.22;;;17.70;76.20;;;;;;4907648;28;89595;-62
2023/05/29 00:24:16;;;;;;;68.07;52.35;;;17.80;76.80;;;;;;4904698;28;89356;-59
2023/05/29 00:26:42;;;;;;;66.20;51.78;;;17.70;76.80;;;;;;4898602;28;92712;-60
2023/05/29 00:29:08;;;;;;;67.65;51.85;;;17.70;76.10;;;;;;4903599;28;91026;-65
2023/05/29 00:31:36;;;;;;;66.95;51.72;;;17.70;77.10;;;;;;4900445;28;89490;-63
2023/05/29 00:34:02;;;;;;;70.13;52.65;;;17.70;77.20;;;;;;4901159;28;89282;-64
2023/05/29 00:36:28;;;;;;;67.50;52.08;;;17.70;77.10;;;;;;4905839;28;89531;-67
2023/05/29 00:38:54;;;;;;;68.53;52.35;;;17.70;76.80;;;;;;4901861;28;90785;-66
2023/05/29 00:41:20;;;;;;;67.45;52.10;;;17.60;75.70;;;;;;4897885;28;94579;-60
2023/05/29 00:43:45;;;;;;;67.32;52.13;;;17.60;76.30;;;;;;4901000;28;89997;-61
2023/05/29 00:46:13;;;;;;;67.30;52.28;;;17.60;77.60;;;;;;4898885;28;91390;-54
2023/05/29 00:48:41;;;;;;;69.35;52.25;;;17.60;77.60;;;;;;4903309;28;91128;-63
2023/05/29 00:51:08;;;;;;;67.40;51.97;;;17.60;77.40;;;;;;4903642;28;92158;-64
2023/05/29 00:53:34;;;;;;;68.55;52.22;;;17.60;77.80;;;;;;4902329;28;90085;-68
2023/05/29 00:56:01;;;;;;;65.38;51.75;;;17.50;77.70;;;;;;4898425;28;91197;-59
2023/05/29 00:58:27;;;;;;;66.82;51.95;;;17.50;77.60;;;;;;4898291;28;91247;-66
2023/05/29 01:00:53;;;;;;;67.05;52.03;;;17.50;77.80;;;;;;4901185;28;90343;-57
2023/05/29 01:03:22;;;;;;;66.13;52.40;;;17.50;77.70;;;;;;4901008;28;89641;-67
2023/05/29 01:05:48;;;;;;;65.22;51.63;;;17.50;78.20;;;;;;4903868;28;90921;-68
2023/05/29 01:08:14;;;;;;;68.72;52.05;;;17.40;78.50;;;;;;4903301;28;92037;-67
2023/05/29 01:10:42;;;;;;;66.30;51.50;;;17.40;78.40;;;;;;4904297;28;89788;-59
2023/05/29 01:13:23;;;;;;;68.05;52.08;;;17.40;78.10;;;;;;4907391;28;89516;-59
2023/05/29 01:15:49;;;;;;;67.50;52.20;;;17.30;78.40;;;;;;4904908;28;90179;-68
2023/05/29 01:18:55;;;;;;;67.28;51.90;;;17.40;78.70;;;;;;4905471;28;90219;-66
2023/05/29 01:21:46;;;;;;;68.25;52.53;;;17.40;78.30;;;;;;4907326;28;91202;-60
2023/05/29 01:24:23;;;;;;;64.80;52.20;;;17.30;78.20;;;;;;4905427;28;88711;-64
2023/05/29 01:27:00;;;;;;;69.80;52.33;;;17.30;78.60;;;;;;4903998;28;91114;-47
2023/05/29 01:29:33;;;;;;;68.82;52.42;;;17.30;78.20;;;;;;4902650;28;90594;-53
2023/05/29 01:32:01;;;;;;;67.40;52.22;;;17.30;79.00;;;;;;4902557;28;90875;-45
2023/05/29 01:34:27;;;;;;;69.32;52.22;;;17.20;78.10;;;;;;4907609;28;89839;-46
2023/05/29 01:36:53;;;;;;;67.05;52.00;;;17.10;79.10;;;;;;4904493;28;91332;-46
2023/05/29 01:39:21;;;;;;;67.60;52.25;;;17.10;79.40;;;;;;4903106;28;90600;-45
2023/05/29 01:41:47;;;;;;;67.72;52.15;;;17.10;79.30;;;;;;4905413;28;89906;-45
2023/05/29 01:44:15;;;;;;;67.22;52.35;;;17.10;79.70;;;;;;4909640;28;90042;-44
2023/05/29 01:46:42;;;;;;;68.13;52.35;;;17.10;80.00;;;;;;4902404;28;90062;-44
2023/05/29 01:49:09;;;;;;;67.30;51.88;;;17.10;79.30;;;;;;4906946;28;90916;-45
2023/05/29 01:51:35;;;;;;;67.50;51.67;;;17.10;79.90;;;;;;4903770;28;90044;-46
2023/05/29 01:54:01;;;;;;;65.95;51.45;;;17.00;79.30;;;;;;4903108;28;89606;-45
2023/05/29 01:56:28;;;;;;;67.65;51.50;;;17.00;79.70;;;;;;4907616;28;91858;-43
2023/05/29 01:58:55;;;;;;;66.13;51.83;;;17.00;79.60;;;;;;4902555;28;90965;-46
2023/05/29 02:01:24;;;;;;;66.75;52.13;;;17.00;79.60;;;;;;4906691;28;89889;-43
2023/05/29 02:03:53;;;;;;;66.28;52.08;;;16.90;79.50;;;;;;4904894;28;89531;-47
2023/05/29 02:06:19;;;;;;;67.57;51.83;;;17.00;80.60;;;;;;4902536;28;91062;-45
2023/05/29 02:08:45;;;;;;;66.65;51.67;;;16.90;80.50;;;;;;4900021;28;91185;-48
2023/05/29 02:11:11;;;;;;;67.32;51.72;;;16.90;80.40;;;;;;4900768;28;90122;-48
2023/05/29 02:13:37;;;;;;;66.47;51.83;;;16.90;79.80;;;;;;4906731;28;89199;-45
2023/05/29 02:16:03;;;;;;;65.07;51.72;;;16.90;80.40;;;;;;4899754;28;91536;-46
2023/05/29 02:18:28;;;;;;;66.10;51.83;;;16.90;80.80;;;;;;4898219;28;89647;-44
2023/05/29 02:20:54;;;;;;;66.30;51.47;;;16.90;80.70;;;;;;4897099;28;91485;-44
2023/05/29 02:23:19;;;;;;;66.68;51.65;;;16.80;81.00;;;;;;4902651;28;89942;-45
2023/05/29 02:25:46;;;;;;;67.55;51.80;;;16.80;80.60;;;;;;4897001;28;90150;-46
2023/05/29 02:28:11;;;;;;;64.68;51.45;;;16.70;80.90;;;;;;4899880;28;90234;-47
2023/05/29 02:30:37;;;;;;;66.68;51.90;;;16.80;80.60;;;;;;4894089;28;89932;-48
2023/05/29 02:33:03;;;;;;;66.05;51.60;;;16.80;80.60;;;;;;4894269;28;90688;-45
2023/05/29 02:35:29;;;;;;;66.78;51.65;;;16.80;81.30;;;;;;4895588;28;91311;-45
2023/05/29 02:37:55;;;;;;;66.03;51.88;;;16.80;80.60;;;;;;4897497;28;90672;-43
2023/05/29 02:40:21;;;;;;;64.72;51.15;;;16.70;80.80;;;;;;4899817;28;89832;-44
2023/05/29 02:42:47;;;;;;;66.05;51.55;;;16.70;80.90;;;;;;4896115;28;91000;-44
2023/05/29 02:45:13;;;;;;;64.50;51.55;;;16.70;81.20;;;;;;4895860;28;92152;-44
2023/05/29 02:47:39;;;;;;;67.20;52.00;;;16.70;80.60;;;;;;4895103;28;91902;-48
2023/05/29 02:50:05;;;;;;;66.85;51.65;;;16.70;80.70;;;;;;4915909;28;91297;-47
2023/05/29 02:52:34;;;;;;;65.95;51.67;;;16.60;81.20;;;;;;4901288;28;90802;-46
2023/05/29 02:55:00;;;;;;;66.45;51.50;;;16.60;81.20;;;;;;4901068;28;91468;-45
2023/05/29 02:57:26;;;;;;;65.20;51.33;;;16.60;81.10;;;;;;4896752;28;91613;-46
2023/05/29 02:59:52;;;;;;;67.25;51.50;;;16.60;81.00;;;;;;4898536;28;90198;-44
2023/05/29 03:02:18;;;;;;;64.78;51.63;;;16.60;81.10;;;;;;4894953;28;89482;-48
2023/05/29 03:04:44;;;;;;;64.40;51.10;;;16.60;80.80;;;;;;4896536;28;91093;-45
2023/05/29 03:07:10;;;;;;;65.55;51.25;;;16.50;81.30;;;;;;4897609;28;92148;-44
2023/05/29 03:09:36;;;;;;;64.88;50.88;;;16.50;81.60;;;;;;4895794;28;90584;-45
2023/05/29 03:12:02;;;;;;;64.93;51.45;;;16.50;80.80;;;;;;4901391;28;89988;-47
2023/05/29 03:14:27;;;;;;;65.82;51.28;;;16.40;81.60;;;;;;4903296;28;90860;-47
2023/05/29 03:16:54;;;;;;;66.80;51.25;;;16.40;81.10;;;;;;4899537;28;91256;-48
2023/05/29 03:19:20;;;;;;;64.40;51.33;;;16.40;82.20;;;;;;4903545;28;89941;-49
2023/05/29 03:21:45;;;;;;;68.65;51.65;;;16.40;81.90;;;;;;4901117;28;89992;-48
2023/05/29 03:24:13;;;;;;;68.60;51.58;;;16.40;80.90;;;;;;4901765;28;91067;-44
2023/05/29 03:26:39;;;;;;;64.65;51.15;;;16.30;82.60;;;;;;4904613;28;89786;-45
2023/05/29 03:29:05;;;;;;;64.95;50.92;;;16.30;82.70;;;;;;4901985;28;90049;-44
2023/05/29 03:31:31;;;;;;;65.47;51.42;;;16.30;81.70;;;;;;4902036;28;89894;-45
2023/05/29 03:33:57;;;;;;;65.60;50.83;;;16.30;82.80;;;;;;4902374;28;92330;-46
2023/05/29 03:36:23;;;;;;;65.57;51.38;;;16.30;82.10;;;;;;4899452;28;90881;-44
2023/05/29 03:38:48;;;;;;;67.57;51.28;;;16.30;82.30;;;;;;4903523;28;90407;-46
2023/05/29 03:41:14;;;;;;;63.95;50.55;;;16.20;82.70;;;;;;4900870;28;90966;-46
2023/05/29 03:43:40;;;;;;;65.20;51.17;;;16.30;82.50;;;;;;4906225;28;91773;-45
2023/05/29 03:46:05;;;;;;;65.15;51.03;;;16.30;82.60;;;;;;4902288;28;90962;-48
2023/05/29 03:48:31;;;;;;;66.32;51.13;;;16.20;82.40;;;;;;4899590;28;90213;-48
2023/05/29 03:50:57;;;;;;;65.70;51.60;;;16.20;82.10;;;;;;4904163;28;88651;-48
2023/05/29 03:53:22;;;;;;;65.88;51.05;;;16.10;82.70;;;;;;4902627;28;91063;-45
2023/05/29 03:55:48;;;;;;;65.28;50.80;;;16.10;82.00;;;;;;4904827;28;90248;-46
2023/05/29 03:58:13;;;;;;;66.78;50.83;;;16.10;82.50;;;;;;4900720;28;90989;-47
2023/05/29 04:00:40;;;;;;;67.93;51.28;;;16.10;82.60;;;;;;4899157;28;89619;-45
2023/05/29 04:03:06;;;;;;;64.88;50.47;;;16.10;82.50;;;;;;4901263;28;89940;-44
2023/05/29 04:05:31;;;;;;;64.22;50.45;;;16.00;81.90;;;;;;4904157;28;90108;-45
2023/05/29 04:07:57;;;;;;;64.38;50.72;;;16.00;81.40;;;;;;4900951;28;89431;-47
2023/05/29 04:10:26;;;;;;;64.60;51.10;;;16.00;82.80;;;;;;4904626;28;89988;-45
2023/05/29 04:12:51;;;;;;;66.47;50.47;;;16.10;83.40;;;;;;4901548;28;91112;-43
2023/05/29 04:15:17;;;;;;;64.53;50.88;;;16.00;81.70;;;;;;4903561;28;90251;-44
2023/05/29 04:17:43;;;;;;;64.90;50.95;;;16.00;81.70;;;;;;4903826;28;92453;-44
2023/05/29 04:20:09;;;;;;;65.72;50.40;;;16.00;82.80;;;;;;4898700;28;90184;-45
2023/05/29 04:22:38;;;;;;;65.05;50.92;;;16.00;81.30;;;;;;4909167;28;93553;-48
2023/05/29 04:25:05;;;;;;;64.50;50.75;;;16.00;82.70;;;;;;4901931;28;90311;-47
2023/05/29 04:27:32;;;;;;;64.82;50.80;;;16.00;82.70;;;;;;4900760;28;90021;-46
2023/05/29 04:29:58;;;;;;;65.60;50.85;;;16.00;81.60;;;;;;4900988;28;89458;-48
2023/05/29 04:32:24;;;;;;;65.90;51.00;;;16.00;81.20;;;;;;4898619;28;91124;-44
2023/05/29 04:34:51;;;;;;;63.83;50.40;;;16.00;82.30;;;;;;4902158;28;94383;-48
2023/05/29 04:37:17;;;;;;;66.40;50.78;;;16.10;82.50;;;;;;4900666;28;89906;-46
2023/05/29 04:39:43;;;;;;;66.47;50.45;;;16.00;82.10;;;;;;4895645;28;90213;-45
2023/05/29 04:42:08;;;;;;;64.88;50.95;;;16.00;81.80;;;;;;4895752;28;91383;-46
2023/05/29 04:44:34;;;;;;;65.00;50.95;;;16.10;82.60;;;;;;4899219;28;90054;-67
2023/05/29 04:47:03;;;;;;;67.60;50.80;;;16.10;82.30;;;;;;4895911;28;91204;-58
2023/05/29 04:49:29;;;;;;;66.38;50.75;;;16.10;81.20;;;;;;4905295;28;89970;-64
2023/05/29 04:51:54;;;;;;;65.45;50.40;;;16.00;82.20;;;;;;4902322;28;91156;-52
2023/05/29 04:54:22;;;;;;;66.38;51.25;;;16.10;82.40;;;;;;4900564;28;91273;-65
2023/05/29 04:56:48;;;;;;;66.32;50.63;;;16.10;81.90;;;;;;4900995;28;91519;-63
2023/05/29 04:59:14;;;;;;;66.57;50.55;;;16.20;81.80;;;;;;4901923;28;91673;-68
2023/05/29 05:01:43;;;;;;;65.40;50.65;;;16.20;81.00;;;;;;4903017;28;91448;-52
2023/05/29 05:04:08;;;;;;;65.47;50.58;;;16.20;81.30;;;;;;4903542;28;89146;-53
2023/05/29 05:06:34;;;;;;;64.18;50.42;;;16.20;80.20;;;;;;4901185;28;90758;-67
2023/05/29 05:09:00;;;;;;;63.13;50.35;;;16.10;80.80;;;;;;4903247;28;89715;-64
2023/05/29 05:11:26;;;;;;;65.45;50.42;;;16.10;80.00;;;;;;4899876;28;91990;-65
2023/05/29 05:13:52;;;;;;;64.57;50.85;;;16.20;81.50;;;;;;4904825;28;90498;-56
2023/05/29 05:16:18;;;;;;;64.50;50.35;;;16.20;81.10;;;;;;4901345;28;90111;-62
2023/05/29 05:18:44;;;;;;;64.72;50.60;;;16.20;81.10;;;;;;4902391;28;90871;-62
2023/05/29 05:21:10;;;;;;;65.97;50.50;;;16.30;81.00;;;;;;4901365;28;91120;-65
2023/05/29 05:23:36;;;;;;;65.80;50.47;;;16.20;80.40;;;;;;4903107;28;89459;-61
2023/05/29 05:26:01;;;;;;;64.82;50.15;;;16.30;80.60;;;;;;4901418;28;90208;-64
2023/05/29 05:28:27;;;;;;;64.20;50.47;;;16.30;79.60;;;;;;4907665;28;89777;-63
2023/05/29 05:30:53;;;;;;;64.50;50.55;;;16.40;79.80;;;;;;4902251;28;91394;-67
2023/05/29 05:33:18;;;;;;;66.57;50.72;;;16.40;79.70;;;;;;4905361;28;89907;-59
2023/05/29 05:35:44;;;;;;;65.88;50.28;;;16.30;80.10;;;;;;4908522;28;90896;-54
2023/05/29 05:38:10;;;;;;;63.63;50.50;;;16.40;79.90;;;;;;4905734;28;89459;-60
2023/05/29 05:40:35;;;;;;;63.67;50.22;;;16.40;78.80;;;;;;4901315;28;91603;-63
2023/05/29 05:43:01;;;;;;;65.43;50.60;;;16.30;79.50;;;;;;4893197;28;91927;-63
2023/05/29 05:45:27;;;;;;;65.57;50.67;;;16.40;79.70;;;;;;4903115;28;90078;-55
2023/05/29 05:47:52;;;;;;;65.57;50.47;;;16.40;79.60;;;;;;4910865;28;89857;-61
2023/05/29 05:50:18;;;;;;;65.80;50.42;;;16.50;79.70;;;;;;4909394;28;91098;-60
2023/05/29 05:52:45;;;;;;;68.13;50.55;;;16.50;79.70;;;;;;4907166;28;89350;-68
2023/05/29 05:55:10;;;;;;;64.45;50.53;;;16.50;79.50;;;;;;4903488;28;89629;-59
2023/05/29 05:57:36;;;;;;;65.22;50.53;;;16.50;78.70;;;;;;4906389;28;89863;-59
2023/05/29 06:00:12;;;;;;;65.78;50.50;;;16.50;80.10;;;;;;4906138;28;91117;-63
2023/05/29 06:02:41;;;;;;;64.72;50.17;;;16.60;79.30;;;;;;4903715;28;89734;-67
2023/05/29 06:05:07;;;;;;;66.30;50.55;;;16.60;78.90;;;;;;4909648;28;90683;-62
2023/05/29 06:07:33;;;;;;;65.65;50.50;;;16.60;78.90;;;;;;4907222;28;89963;-64
2023/05/29 06:09:58;;;;;;;65.85;50.70;;;16.60;78.40;;;;;;4908175;28;91959;-68
2023/05/29 06:12:24;;;;;;;65.18;50.78;;;16.60;78.60;;;;;;4907846;28;90626;-63
2023/05/29 06:14:50;;;;;;;66.47;50.75;;;16.70;78.00;;;;;;4907109;28;89963;-58
2023/05/29 06:17:16;;;;;;;64.90;50.45;;;16.60;77.70;;;;;;4905484;28;88765;-59
2023/05/29 06:19:41;;;;;;;66.05;50.80;;;16.60;77.70;;;;;;4897480;28;90643;-63
2023/05/29 06:22:07;;;;;;;64.18;50.13;;;16.60;77.90;;;;;;4902607;28;89888;-61
2023/05/29 06:24:33;;;;;;;67.47;50.38;;;16.60;77.70;;;;;;4904480;28;91161;-61
2023/05/29 06:26:58;;;;;;;64.80;50.47;;;16.60;77.90;;;;;;4907379;28;90350;-69
2023/05/29 06:29:24;;;;;;;68.72;50.70;;;16.70;77.80;;;;;;4901082;28;91059;-61
2023/05/29 06:31:50;;;;;;;72.85;50.65;;;16.50;72.60;;;;;;4901677;28;91263;-61
2023/05/29 06:34:15;;;;;;;70.18;50.55;;;16.60;67.40;;;;;;4906178;28;89498;-56
2023/05/29 06:36:41;;;;;;;69.60;51.03;;;16.20;65.60;;;;;;4907382;28;90489;-56
2023/05/29 06:39:07;;;;;;;69.03;50.70;;;16.40;67.50;;;;;;4904248;28;90054;-61
2023/05/29 06:41:33;;;;;;;71.28;50.65;;;16.30;64.30;;;;;;4897200;28;88973;-60
2023/05/29 06:43:58;;;;;;;70.25;50.85;;;16.30;65.70;;;;;;4903371;28;89515;-59
2023/05/29 06:46:24;;;;;;;67.80;50.72;;;16.30;63.40;;;;;;4902266;28;89376;-61
2023/05/29 06:48:50;;;;;;;72.38;50.55;;;16.30;64.70;;;;;;4904228;28;90416;-57
2023/05/29 06:51:17;;;;;;;68.80;50.88;;;16.30;65.00;;;;;;4903573;28;89833;-56
2023/05/29 06:53:43;;;;;;;69.13;51.00;;;16.00;64.30;;;;;;4907470;28;89371;-59
2023/05/29 06:56:08;;;;;;;67.22;50.60;;;16.10;64.20;;;;;;4903901;28;90024;-60
2023/05/29 06:58:34;;;;;;;69.97;50.75;;;16.20;64.90;;;;;;4902349;28;90476;-59
2023/05/29 07:01:01;;;;;;;72.32;51.05;;;16.30;63.80;;;;;;4895150;28;89967;-58
2023/05/29 07:03:27;;;;;;;75.00;51.05;;;16.40;63.10;;;;;;4893242;28;90354;-57
2023/05/29 07:05:53;;;;;;;70.13;50.53;;;16.30;64.30;;;;;;4903336;28;89719;-60
2023/05/29 07:08:19;;;;;;;70.53;50.58;;;16.30;64.10;;;;;;4900676;28;90309;-56
2023/05/29 07:10:44;;;;;;;71.07;50.70;;;16.10;66.70;;;;;;4896325;28;90551;-58
2023/05/29 07:13:13;;;;;;;69.47;50.20;;;16.10;67.10;;;;;;4891254;28;91947;-60
2023/05/29 07:15:39;;;;;;;68.10;50.22;;;16.10;65.50;;;;;;4900211;28;94693;-58
2023/05/29 07:18:04;;;;;;;76.07;50.55;;;16.00;64.70;;;;;;4904743;28;91817;-61
2023/05/29 07:20:30;;;;;;;71.75;50.85;;;16.00;66.30;;;;;;4904862;28;93245;-60
2023/05/29 07:22:55;;;;;;;68.45;51.00;;;16.00;66.90;;;;;;4904794;28;89860;-59
2023/05/29 07:25:21;;;;;;;69.35;50.47;;;16.00;67.80;;;;;;4902941;28;89536;-59
2023/05/29 07:27:47;;;;;;;67.55;50.53;;;16.10;67.70;;;;;;4901366;28;89568;-57
2023/05/29 07:30:13;;;;;;;68.05;50.70;;;16.20;65.70;;;;;;4900158;28;91282;-56
2023/05/29 07:32:38;;;;;;;69.45;50.33;;;16.00;66.60;;;;;;4899561;28;91467;-60
2023/05/29 07:35:05;;;;;;;66.70;50.22;;;16.10;67.00;;;;;;4905122;28;90144;-53
2023/05/29 07:37:31;;;;;;;70.55;50.88;;;16.30;63.90;;;;;;4892500;28;92241;-58
2023/05/29 07:39:57;;;;;;;68.72;50.80;;;16.10;62.80;;;;;;4899982;28;90061;-57
2023/05/29 07:42:22;;;;;;;67.85;50.60;;;16.30;65.20;;;;;;4902283;28;90029;-57
2023/05/29 07:44:48;;;;;;;68.05;50.30;;;16.60;64.00;;;;;;4900402;28;94873;-58
2023/05/29 07:47:14;;;;;;;71.88;51.13;;;16.40;63.80;;;;;;4902479;28;89481;-61
2023/05/29 07:49:40;;;;;;;71.70;50.70;;;16.50;62.50;;;;;;4908291;28;90420;-59
2023/05/29 07:52:06;;;;;;;69.47;50.55;;;16.50;62.50;;;;;;4895376;28;92115;-59
2023/05/29 07:54:32;;;;;;;73.07;50.22;;;16.50;62.10;;;;;;4897674;28;89927;-56
2023/05/29 07:57:09;;;;;;;70.50;50.90;;;16.60;62.50;;;;;;4894156;28;90515;-59
2023/05/29 07:59:35;;;;;;;69.85;50.72;;;16.50;63.90;;;;;;4890663;28;90603;-56
2023/05/29 08:02:03;;;;;;;70.03;50.83;;;16.70;62.00;;;;;;4896622;28;90916;-58
2023/05/29 08:04:28;;;;;;;72.13;50.90;;;16.50;62.40;;;;;;4896783;28;91488;-57
2023/05/29 08:06:54;;;;;;;71.05;50.72;;;16.80;62.70;;;;;;4895268;28;92856;-60
2023/05/29 08:09:20;;;;;;;69.88;50.78;;;16.70;61.20;;;;;;4899800;28;89557;-60
2023/05/29 08:11:47;;;;;;;69.72;51.20;;;16.90;61.90;;;;;;4894404;28;90062;-58
2023/05/29 08:14:15;;;;;;;69.10;50.28;;;16.80;61.10;;;;;;4899214;28;90966;-59
2023/05/29 08:16:40;;;;;;;69.38;50.70;;;16.60;60.20;;;;;;4897526;28;91317;-51
2023/05/29 08:19:06;;;;;;;72.75;51.15;;;16.70;61.60;;;;;;4890504;28;94861;-49
2023/05/29 08:21:32;;;;;;;72.28;50.92;;;16.70;62.20;;;;;;4902489;28;89769;-48
2023/05/29 08:23:58;;;;;;;75.75;50.85;;;16.70;60.10;;;;;;4897023;28;94960;-49
2023/05/29 08:26:24;;;;;;;71.38;50.75;;;17.00;61.50;;;;;;4901659;28;91163;-50
2023/05/29 08:28:50;;;;;;;69.28;50.90;;;17.00;62.10;;;;;;4892171;28;90829;-47
2023/05/29 08:31:16;;;;;;;70.10;50.80;;;17.00;60.10;;;;;;4890417;28;89981;-49
2023/05/29 08:33:42;;;;;;;71.10;50.67;;;17.10;60.50;;;;;;4899605;28;90517;-49
2023/05/29 08:36:08;;;;;;;69.93;50.58;;;17.00;60.20;;;;;;4885794;28;90023;-48
2023/05/29 08:38:35;;;;;;;68.32;50.85;;;17.00;60.00;;;;;;4889005;28;89916;-50
2023/05/29 08:41:00;;;;;;;71.00;50.85;;;17.00;58.80;;;;;;4887351;28;90366;-52
2023/05/29 08:43:30;;;;;;;71.78;50.60;;;17.00;59.90;;;;;;4889383;28;88893;-53
2023/05/29 08:46:00;;;;;;;66.95;50.40;;;17.00;59.50;;;;;;4891441;28;91509;-48
2023/05/29 08:48:27;;;;;;;69.20;50.88;;;17.10;60.50;;;;;;4892876;28;90974;-50
2023/05/29 08:50:55;;;;;;;66.88;50.63;;;17.10;60.20;;;;;;4890850;28;92702;-50
2023/05/29 08:53:22;;;;;;;67.47;50.50;;;17.20;61.00;;;;;;4898899;28;89912;-47
2023/05/29 08:55:51;;;;;;;68.68;50.80;;;17.30;60.30;;;;;;4890931;28;90624;-52
2023/05/29 08:58:17;;;;;;;68.32;50.72;;;17.20;60.40;;;;;;4890862;28;91037;-47
2023/05/29 09:00:47;;;;;;;71.72;50.75;;;17.30;61.80;;;;;;4893060;28;89573;-53
2023/05/29 09:03:13;;;;;;;66.05;50.53;;;17.40;61.60;;;;;;4888668;28;90989;-50
2023/05/29 09:05:40;;;;;;;68.45;50.72;;;17.40;60.00;;;;;;4891275;28;89990;-47
2023/05/29 09:08:07;;;;;;;69.55;51.15;;;17.40;61.90;;;;;;4893637;28;91111;-51
2023/05/29 09:10:33;;;;;;;73.20;51.00;;;17.40;60.40;;;;;;4895993;28;90884;-52
2023/05/29 09:12:59;;;;;;;72.72;51.33;;;17.40;60.30;;;;;;4893519;28;91562;-50
2023/05/29 09:15:25;;;;;;;70.32;51.03;;;17.40;60.10;;;;;;4897742;28;91617;-48
2023/05/29 09:17:55;;;;;;;66.18;50.80;;;17.50;61.80;;;;;;4900109;28;91812;-48
2023/05/29 09:20:23;;;;;;;69.40;51.13;;;17.50;59.90;;;;;;4898811;28;90534;-47
2023/05/29 09:23:03;;;;;;;66.95;51.05;;;17.50;61.40;;;;;;4896959;28;90927;-52
2023/05/29 09:25:31;;;;;;;67.05;50.65;;;17.60;60.30;;;;;;4889557;28;91978;-61
2023/05/29 09:28:05;;;;;;;66.60;50.70;;;17.60;59.00;;;;;;4897636;28;91681;-61
2023/05/29 09:30:39;;;;;;;66.72;51.00;;;17.60;58.80;;;;;;4900404;28;89388;-61
2023/05/29 09:33:09;;;;;;;70.97;51.42;;;17.60;59.80;;;;;;4899104;28;88926;-62
2023/05/29 09:35:42;;;;;;;70.65;51.35;;;17.60;59.20;;;;;;4891435;28;90393;-58
2023/05/29 09:38:09;;;;;;;71.70;51.45;;;17.60;59.00;;;;;;4897689;28;90394;-57
2023/05/29 09:40:40;;;;;;;71.03;51.35;;;17.70;59.70;;;;;;4894877;28;92021;-61
2023/05/29 09:43:20;;;;;;;73.57;51.53;;;17.70;59.70;;;;;;4888252;28;89880;-61
2023/05/29 09:45:48;;;;;;;69.53;51.28;;;17.80;59.30;;;;;;4901552;28;95739;-60
2023/05/29 09:48:18;;;;;;;72.55;50.85;;;17.80;59.40;;;;;;4898610;28;90402;-64
2023/05/29 09:50:47;;;;;;;68.70;51.13;;;17.80;59.50;;;;;;4903391;28;90062;-65
2023/05/29 09:53:26;;;;;;;72.38;51.67;;;17.90;59.50;;;;;;4894743;28;93487;-60
2023/05/29 09:55:59;;;;;;;72.05;51.38;;;17.90;58.20;;;;;;4888550;28;91484;-59
2023/05/29 09:58:25;;;;;;;70.07;51.30;;;17.90;60.10;;;;;;4889861;28;89080;-56
2023/05/29 10:00:52;;;;;;;71.40;51.55;;;17.90;59.70;;;;;;4891914;28;89551;-59
2023/05/29 10:03:19;;;;;;;69.70;51.33;;;18.10;60.60;;;;;;4896033;28;89866;-59
2023/05/29 10:05:50;;;;;;;70.45;51.38;;;18.20;59.00;;;;;;4891720;28;90801;-59
2023/05/29 10:08:17;;;;;;;;;;;18.30;60.00;;;;;;4896670;28;89509;-55
2023/05/29 10:10:47;;;;;;;72.43;51.38;;;18.40;59.70;;;;;;4901244;28;89896;-58
2023/05/29 10:13:14;;;;;;;69.38;51.70;;;18.40;58.90;;;;;;4896788;28;91803;-57
2023/05/29 10:15:45;;;;;;;73.05;51.58;;;18.50;58.40;;;;;;4890835;28;90545;-58
2023/05/29 10:18:19;;;;;;;;;;;18.50;58.70;;;;;;4882824;28;89779;-60
2023/05/29 10:20:51;;;;;;;72.65;51.70;;;18.60;59.80;;;;;;4902762;28;89923;-57
2023/05/29 10:23:18;;;;;;;;;;;18.70;58.00;;;;;;4893715;28;90209;-60
2023/05/29 10:25:47;;;;;;;71.80;51.67;;;18.70;59.20;;;;;;4897044;28;89982;-60
2023/05/29 10:28:13;;;;;;;76.85;51.95;;;18.90;59.80;;;;;;4891802;28;90284;-59
2023/05/29 10:30:43;;;;;;;75.30;52.20;;;18.80;58.90;;;;;;4889019;28;91128;-59
2023/05/29 10:33:46;;;;;;;73.25;51.47;;;18.80;57.50;;;;;;4882378;28;90416;-54
2023/05/29 10:36:24;;;;;;;75.38;52.33;;;18.80;57.20;;;;;;4885380;28;92014;-60
2023/05/29 10:38:50;;;;;;;72.72;52.00;;;18.70;57.40;;;;;;4890335;28;92426;-59
2023/05/29 10:41:28;;;;;;;73.40;51.85;;;18.80;58.30;;;;;;4896191;28;94521;-60
2023/05/29 10:44:00;;;;;;;72.28;52.10;;;18.90;57.60;;;;;;4892859;28;90217;-54
2023/05/29 10:46:48;;;;;;;80.20;52.17;;;19.00;58.40;;;;;;4892877;28;89561;-60
2023/05/29 10:49:21;;;;;;;71.05;51.55;;;19.00;57.20;;;;;;4897412;28;90088;-59
2023/05/29 10:51:48;;;;;;;71.88;51.45;;;19.00;58.90;;;;;;4899584;28;91023;-60
2023/05/29 10:54:14;;;;;;;71.95;51.70;;;19.10;57.80;;;;;;4892803;28;90328;-57
2023/05/29 10:56:41;;;;;;;75.90;51.65;;;19.00;57.40;;;;;;4893122;28;90803;-59
2023/05/29 10:59:08;;;;;;;73.70;52.22;;;19.10;57.60;;;;;;4889180;28;95066;-57
2023/05/29 11:01:37;;;;;;;74.55;52.22;;;19.30;58.20;;;;;;4894056;28;89424;-62
2023/05/29 11:04:15;;;;;;;75.20;52.53;;;19.30;58.10;;;;;;4889035;28;90987;-59
2023/05/29 11:06:41;;;;;;;74.78;52.35;;;19.20;57.40;;;;;;4899889;28;89713;-63
2023/05/29 11:09:34;;;;;;;73.28;52.33;;;19.20;58.60;;;;;;4892719;28;90706;-54
2023/05/29 11:12:35;;;;;;;76.18;52.13;;;19.20;57.50;;;;;;4893934;28;89791;-62
2023/05/29 11:15:03;;;;;;;75.20;52.30;;;19.20;58.50;;;;;;4897449;28;88845;-61
2023/05/29 11:17:37;;;;;;;75.22;51.95;;;19.30;57.20;;;;;;4890645;28;91096;-60
2023/05/29 11:20:28;;;;;;;72.53;52.15;;;19.30;57.30;;;;;;4897282;28;91024;-64
2023/05/29 11:23:00;;;;;;;71.07;51.92;;;19.40;58.50;;;;;;4893072;28;90606;-63
2023/05/29 11:25:32;;;;;;;70.97;51.95;;;19.40;58.20;;;;;;4902788;28;90056;-64
2023/05/29 11:27:58;;;;;;;80.93;52.15;;;19.40;58.00;;;;;;4901724;28;89901;-62
2023/05/29 11:30:24;;;;;;;76.82;52.45;;;19.40;58.10;;;;;;4889597;28;90521;-60
2023/05/29 11:32:52;;;;;;;74.60;51.58;;;19.50;58.50;;;;;;4898406;28;89226;-57
2023/05/29 11:35:21;;;;;;;70.72;51.53;;;19.50;57.70;;;;;;4892407;28;89242;-62
2023/05/29 11:37:50;;;;;;;76.95;52.08;;;19.60;57.40;;;;;;4893104;28;89323;-62
2023/05/29 11:40:15;;;;;;;75.00;52.25;;;19.70;57.40;;;;;;4898067;28;90801;-56
2023/05/29 11:42:48;;;;;;;72.28;52.10;;;19.70;56.60;;;;;;4894426;28;93984;-58
2023/05/29 11:45:21;;;;;;;73.18;51.67;;;19.70;56.70;;;;;;4899629;28;90571;-64
2023/05/29 11:47:55;;;;;;;78.10;52.55;;;19.80;57.50;;;;;;4895715;28;91546;-65
2023/05/29 11:50:23;;;;;;;74.30;52.58;;;19.80;56.40;;;;;;4894108;28;91616;-63
2023/05/29 11:52:51;;;;;;;74.20;52.67;;;19.70;55.70;;;;;;4898222;28;90877;-60
2023/05/29 11:55:18;;;;;;;76.18;52.38;;;19.60;55.80;;;;;;4894577;28;89611;-53
2023/05/29 11:57:44;;;;;;;72.32;51.90;;;19.80;57.10;;;;;;4892253;28;89829;-62
2023/05/29 12:00:16;;;;;;;75.00;52.28;;;19.80;57.70;;;;;;4892035;28;89662;-58
2023/05/29 12:02:43;;;;;;;75.95;52.85;;;19.80;56.60;;;;;;4890468;28;89388;-63
2023/05/29 12:05:09;;;;;;;75.88;52.35;;;19.90;57.10;;;;;;4893254;28;91524;-61
2023/05/29 12:07:36;;;;;;;75.68;53.15;;;19.90;55.40;;;;;;4893639;28;89413;-60
2023/05/29 12:10:10;;;;;;;79.03;52.65;;;20.10;57.00;;;;;;4896435;28;89437;-60
2023/05/29 12:12:36;;;;;;;75.18;52.70;;;20.10;56.80;;;;;;4895853;28;90554;-58
2023/05/29 12:15:05;;;;;;;76.97;52.40;;;20.20;56.70;;;;;;4916183;28;88854;-62
2023/05/29 12:17:31;;;;;;;71.43;52.42;;;20.00;55.20;;;;;;4893955;28;89705;-62
2023/05/29 12:19:57;;;;;;;72.47;52.63;;;20.00;55.80;;;;;;4894713;28;89500;-63
2023/05/29 12:22:37;;;;;;;74.88;52.53;;;20.00;55.30;;;;;;4894526;28;91282;-67
2023/05/29 12:25:07;;;;;;;73.35;52.60;;;20.00;56.00;;;;;;4892603;28;89491;-64
2023/05/29 12:27:37;;;;;;;75.43;52.28;;;20.00;54.80;;;;;;4895348;28;89901;-63
2023/05/29 12:30:05;;;;;;;73.57;52.78;;;20.00;53.90;;;;;;4889820;28;90507;-63
2023/05/29 12:32:38;;;;;;;72.78;52.08;;;20.00;54.00;;;;;;4884800;28;91242;-66